Time;durP1;ratioP1;P1;durP2;ratioP2;P2;SDS_P1;SDS_P2;PMS_P1;PMS_P2;Temp;Humidity;BMP_temperature;BMP_pressure;BME280_temperature;BME280_humidity;BME280_pressure;Samples;Min_cycle;Max_cycle;Signal;HPM_P1;HPM_P2
2023/10/31 00:00:40;;;;;;;22.40;8.70;;;22.10;67.80;;;;;;4961647;28;20548;-84
2023/10/31 00:31:47;;;;;;;21.77;7.77;;;22.00;68.30;;;;;;4931710;29;20477;-86
2023/10/31 00:34:45;;;;;;;19.40;7.87;;;22.00;68.30;;;;;;4920873;29;20442;-85
2023/10/31 00:48:44;;;;;;;16.67;6.30;;;22.00;68.30;;;;;;4864230;29;20523;-87
2023/10/31 01:26:35;;;;;;;12.77;6.13;;;21.80;68.80;;;;;;4984154;28;20580;-77
2023/10/31 01:29:03;;;;;;;17.90;6.20;;;21.90;68.40;;;;;;4991293;28;20424;-77
2023/10/31 01:31:32;;;;;;;13.90;6.60;;;21.80;69.10;;;;;;4989912;28;20540;-77
2023/10/31 01:34:06;;;;;;;15.60;6.23;;;21.80;68.50;;;;;;4995751;28;20498;-77
2023/10/31 01:36:35;;;;;;;9.53;5.67;;;21.90;68.40;;;;;;4973129;28;20434;-77
2023/10/31 01:39:04;;;;;;;13.20;6.43;;;21.90;68.50;;;;;;4971350;28;20523;-76
2023/10/31 01:41:33;;;;;;;13.17;6.87;;;21.90;68.40;;;;;;4972114;28;20473;-76
2023/10/31 01:44:01;;;;;;;11.17;5.60;;;21.90;68.40;;;;;;4973881;28;20421;-76
2023/10/31 01:46:29;;;;;;;16.03;6.50;;;21.90;68.30;;;;;;4972081;28;20532;-76
2023/10/31 01:48:57;;;;;;;12.17;6.03;;;21.90;68.20;;;;;;4967386;28;20426;-76
2023/10/31 01:51:25;;;;;;;12.77;6.30;;;21.90;68.50;;;;;;4963507;28;20550;-77
2023/10/31 01:53:54;;;;;;;13.13;6.00;;;21.90;68.40;;;;;;4973339;28;20457;-76
2023/10/31 01:56:23;;;;;;;12.30;6.50;;;21.90;68.20;;;;;;4972912;28;20553;-76
2023/10/31 01:58:50;;;;;;;10.23;5.70;;;21.90;68.30;;;;;;4972072;28;20429;-76
2023/10/31 02:01:18;;;;;;;12.80;5.30;;;21.90;69.00;;;;;;4968652;28;20521;-76
2023/10/31 02:03:46;;;;;;;10.37;5.40;;;21.90;68.30;;;;;;4973469;28;20454;-77
2023/10/31 02:06:14;;;;;;;13.10;5.60;;;21.90;68.30;;;;;;4973330;28;20473;-77
2023/10/31 02:08:43;;;;;;;14.10;6.17;;;21.90;68.30;;;;;;4971084;28;20558;-77
2023/10/31 02:11:13;;;;;;;9.20;5.37;;;21.90;68.60;;;;;;4968311;28;20537;-76
2023/10/31 02:13:41;;;;;;;10.40;5.40;;;21.80;68.50;;;;;;4973804;28;20447;-77
2023/10/31 02:16:09;;;;;;;8.33;4.90;;;21.80;68.40;;;;;;4972811;28;20466;-77
2023/10/31 02:18:37;;;;;;;10.00;4.70;;;21.80;68.50;;;;;;4969755;28;20438;-76
2023/10/31 02:21:05;;;;;;;12.97;5.43;;;21.90;68.50;;;;;;4967848;28;20462;-77
2023/10/31 02:23:34;;;;;;;11.53;5.00;;;21.90;68.40;;;;;;4965034;28;20984;-77
2023/10/31 02:26:03;;;;;;;12.47;5.07;;;21.90;68.60;;;;;;4967888;28;20540;-77
2023/10/31 02:28:31;;;;;;;9.07;5.33;;;21.80;68.30;;;;;;4968695;28;20782;-76
2023/10/31 02:30:59;;;;;;;10.10;4.80;;;21.90;68.50;;;;;;4968151;28;20441;-78
2023/10/31 02:33:27;;;;;;;11.30;5.03;;;21.90;68.30;;;;;;4966181;28;20451;-77
2023/10/31 02:35:55;;;;;;;11.87;5.13;;;21.80;68.50;;;;;;4976713;28;20472;-77
2023/10/31 02:38:23;;;;;;;11.77;4.80;;;21.80;68.70;;;;;;4975773;28;20542;-77
2023/10/31 02:40:53;;;;;;;12.10;5.87;;;21.80;68.30;;;;;;4977274;28;20477;-77
2023/10/31 02:43:21;;;;;;;9.77;5.70;;;21.80;68.70;;;;;;4977748;28;20416;-77
2023/10/31 02:45:48;;;;;;;11.40;5.60;;;21.80;68.40;;;;;;4966542;28;20554;-76
2023/10/31 02:48:16;;;;;;;9.30;5.13;;;21.80;68.40;;;;;;4973060;28;20500;-76
2023/10/31 02:50:44;;;;;;;9.90;5.20;;;21.80;68.60;;;;;;4977894;28;20541;-76
2023/10/31 02:53:12;;;;;;;11.30;4.83;;;21.80;68.60;;;;;;4981054;28;20458;-76
2023/10/31 02:55:41;;;;;;;8.60;4.70;;;21.80;68.50;;;;;;4972546;28;20467;-76
2023/10/31 02:58:10;;;;;;;6.00;4.50;;;21.80;68.50;;;;;;4972184;28;20443;-76
2023/10/31 03:00:38;;;;;;;11.27;5.10;;;21.80;68.50;;;;;;4967816;28;20446;-76
2023/10/31 03:03:06;;;;;;;10.77;5.30;;;21.80;68.20;;;;;;4969700;28;20509;-76
2023/10/31 03:05:34;;;;;;;6.60;4.43;;;21.80;68.70;;;;;;4974169;28;20473;-76
2023/10/31 03:08:02;;;;;;;11.37;4.67;;;21.80;68.70;;;;;;4974287;28;20446;-76
2023/10/31 03:10:30;;;;;;;8.43;4.37;;;21.80;68.40;;;;;;4973726;28;20461;-76
2023/10/31 03:12:59;;;;;;;7.33;4.27;;;21.70;68.70;;;;;;4979028;28;20533;-77
2023/10/31 03:15:29;;;;;;;7.47;4.20;;;21.70;68.70;;;;;;4972847;28;21076;-76
2023/10/31 03:17:57;;;;;;;6.90;4.30;;;21.70;68.40;;;;;;4972796;28;20536;-76
2023/10/31 03:20:25;;;;;;;8.33;3.97;;;21.70;68.50;;;;;;4968670;28;20419;-76
2023/10/31 03:22:53;;;;;;;10.13;4.70;;;21.70;68.60;;;;;;4972485;28;20476;-76
2023/10/31 03:25:21;;;;;;;8.77;4.00;;;21.70;68.80;;;;;;4967483;28;20473;-76
2023/10/31 03:27:49;;;;;;;7.77;4.87;;;21.70;68.60;;;;;;4972771;28;20466;-76
2023/10/31 03:30:17;;;;;;;9.47;4.33;;;21.70;68.70;;;;;;4972938;28;20489;-76
2023/10/31 03:32:46;;;;;;;9.00;4.17;;;21.70;68.80;;;;;;4972721;28;20452;-77
2023/10/31 03:35:14;;;;;;;7.63;4.67;;;21.70;68.40;;;;;;4966090;28;20467;-77
2023/10/31 03:37:42;;;;;;;8.10;4.20;;;21.70;68.70;;;;;;4971406;28;20500;-77
2023/10/31 03:40:11;;;;;;;7.40;4.40;;;21.70;68.80;;;;;;4971673;28;20440;-77
2023/10/31 03:42:39;;;;;;;7.10;3.50;;;21.70;68.70;;;;;;4970247;28;20513;-77
2023/10/31 03:45:08;;;;;;;6.93;3.77;;;21.70;68.80;;;;;;4966800;28;20494;-77
2023/10/31 03:47:36;;;;;;;5.83;3.43;;;21.70;68.70;;;;;;4971936;28;20452;-76
2023/10/31 03:50:06;;;;;;;7.80;4.43;;;21.70;68.90;;;;;;4972787;28;20443;-76
2023/10/31 03:52:35;;;;;;;8.07;4.43;;;21.70;68.90;;;;;;4971796;28;20465;-77
2023/10/31 03:55:03;;;;;;;7.33;4.37;;;21.60;68.60;;;;;;4972204;28;20428;-76
2023/10/31 03:57:31;;;;;;;6.07;4.00;;;21.60;69.00;;;;;;4973999;28;20443;-77
2023/10/31 03:59:58;;;;;;;6.90;4.30;;;21.60;68.70;;;;;;4964010;28;20446;-77
2023/10/31 04:02:27;;;;;;;6.33;3.93;;;21.60;68.90;;;;;;4970220;28;20437;-77
2023/10/31 04:04:55;;;;;;;3.93;3.20;;;21.60;68.60;;;;;;4968429;28;20504;-77
2023/10/31 04:07:24;;;;;;;6.87;4.20;;;21.60;68.80;;;;;;4965987;28;20474;-77
2023/10/31 04:09:52;;;;;;;8.30;4.00;;;21.60;69.00;;;;;;4973543;28;20531;-77
2023/10/31 04:12:21;;;;;;;5.80;3.83;;;21.60;68.90;;;;;;4971704;28;20478;-77
2023/10/31 04:14:49;;;;;;;5.03;3.60;;;21.60;69.00;;;;;;4975728;28;20500;-76
2023/10/31 04:17:16;;;;;;;5.53;3.87;;;21.60;69.20;;;;;;4975136;28;20466;-76
2023/10/31 04:19:45;;;;;;;6.20;3.63;;;21.60;69.20;;;;;;4975864;28;20446;-77
2023/10/31 04:22:13;;;;;;;6.63;3.50;;;21.60;69.00;;;;;;4969952;28;20463;-76
2023/10/31 04:24:42;;;;;;;6.60;3.73;;;21.60;69.00;;;;;;4974883;28;20535;-77
2023/10/31 04:27:10;;;;;;;8.90;4.00;;;21.60;68.90;;;;;;4971388;28;20912;-77
2023/10/31 04:29:38;;;;;;;5.27;3.50;;;21.60;69.00;;;;;;4978873;28;20541;-77
2023/10/31 04:32:07;;;;;;;5.67;3.83;;;21.60;68.80;;;;;;4975750;28;20512;-76
2023/10/31 04:34:35;;;;;;;4.47;3.40;;;21.60;69.10;;;;;;4972429;28;20485;-77
2023/10/31 04:37:03;;;;;;;6.33;3.70;;;21.60;69.00;;;;;;4969367;28;20532;-77
2023/10/31 04:39:31;;;;;;;4.20;3.50;;;21.60;69.00;;;;;;4967870;28;20502;-77
2023/10/31 04:42:01;;;;;;;3.90;3.57;;;21.60;69.20;;;;;;4962695;28;20446;-76
2023/10/31 04:44:29;;;;;;;5.33;3.60;;;21.60;69.00;;;;;;4975918;28;20472;-77
2023/10/31 04:46:56;;;;;;;5.90;3.80;;;21.60;68.70;;;;;;4966624;28;20484;-77
2023/10/31 04:49:24;;;;;;;4.77;3.67;;;21.60;69.00;;;;;;4969622;28;20467;-78
2023/10/31 04:51:53;;;;;;;4.10;3.70;;;21.60;69.20;;;;;;4975388;28;20507;-78
2023/10/31 04:54:21;;;;;;;5.30;4.27;;;21.60;69.90;;;;;;4975742;28;20442;-77
2023/10/31 04:56:50;;;;;;;5.93;3.20;;;21.60;69.10;;;;;;4971876;28;20448;-76
2023/10/31 04:59:19;;;;;;;6.67;3.70;;;21.50;69.10;;;;;;4976071;28;20500;-76
2023/10/31 05:01:50;;;;;;;5.13;4.07;;;21.50;69.10;;;;;;4975569;28;20835;-75
2023/10/31 05:04:18;;;;;;;4.27;3.87;;;21.50;69.20;;;;;;4967294;28;20471;-75
2023/10/31 05:06:47;;;;;;;5.17;4.53;;;21.50;69.10;;;;;;4973759;28;20481;-75
2023/10/31 05:09:15;;;;;;;5.47;3.73;;;21.50;69.00;;;;;;4974423;28;20501;-75
2023/10/31 05:11:43;;;;;;;5.97;4.30;;;21.50;69.20;;;;;;4973856;28;20446;-76
2023/10/31 05:14:11;;;;;;;6.10;4.00;;;21.50;68.90;;;;;;4974457;28;20513;-75
2023/10/31 05:16:44;;;;;;;5.20;4.40;;;21.50;68.70;;;;;;4975167;28;20425;-75
2023/10/31 05:19:12;;;;;;;4.83;4.20;;;21.40;69.00;;;;;;4974465;28;20441;-76
2023/10/31 05:21:40;;;;;;;6.33;4.40;;;21.40;69.10;;;;;;4973911;28;20446;-76
2023/10/31 05:24:09;;;;;;;5.70;4.27;;;21.40;69.20;;;;;;4967747;28;20522;-76
2023/10/31 05:26:37;;;;;;;7.33;4.40;;;21.40;69.00;;;;;;4977862;28;20529;-76
2023/10/31 05:29:05;;;;;;;5.80;4.23;;;21.30;68.90;;;;;;4971488;28;20534;-76
2023/10/31 05:31:33;;;;;;;5.60;4.30;;;21.30;68.90;;;;;;4971408;28;20447;-76
2023/10/31 05:34:04;;;;;;;7.07;4.80;;;21.30;68.80;;;;;;4981082;28;20505;-76
2023/10/31 05:36:32;;;;;;;8.30;5.03;;;21.30;68.80;;;;;;4975129;28;20466;-76
2023/10/31 05:39:01;;;;;;;8.33;5.00;;;21.20;68.80;;;;;;4982276;28;20450;-77
2023/10/31 05:41:29;;;;;;;6.97;4.77;;;21.20;68.80;;;;;;4975865;28;20888;-77
2023/10/31 05:43:57;;;;;;;6.03;4.53;;;21.20;68.90;;;;;;4974190;28;20481;-77
2023/10/31 05:46:26;;;;;;;6.47;4.30;;;21.20;68.90;;;;;;4975523;28;20499;-76
2023/10/31 05:48:54;;;;;;;4.93;4.30;;;21.20;68.50;;;;;;4978432;28;20426;-78
2023/10/31 05:51:25;;;;;;;4.93;3.97;;;21.20;68.60;;;;;;4971077;28;20452;-78
2023/10/31 05:53:53;;;;;;;8.07;5.03;;;21.10;68.60;;;;;;4969658;28;20450;-79
2023/10/31 05:56:21;;;;;;;7.20;5.37;;;21.10;68.50;;;;;;4975446;28;20462;-78
2023/10/31 05:58:49;;;;;;;4.90;4.40;;;21.10;68.60;;;;;;4974658;28;20442;-78
2023/10/31 06:01:17;;;;;;;6.70;4.90;;;21.10;68.30;;;;;;4973489;28;20435;-78
2023/10/31 06:03:45;;;;;;;7.23;5.50;;;21.00;68.60;;;;;;4972431;28;20499;-78
2023/10/31 06:06:13;;;;;;;6.90;4.97;;;21.00;68.50;;;;;;4974619;28;20470;-78
2023/10/31 06:08:43;;;;;;;7.30;5.40;;;21.10;68.60;;;;;;4973157;28;20474;-76
2023/10/31 06:11:12;;;;;;;6.43;5.07;;;21.00;68.20;;;;;;4972416;28;20538;-77
2023/10/31 06:13:41;;;;;;;12.00;5.20;;;21.00;68.10;;;;;;4971343;28;20442;-78
2023/10/31 06:16:09;;;;;;;7.13;4.70;;;21.00;68.10;;;;;;4966734;28;20526;-79
2023/10/31 06:18:38;;;;;;;6.57;5.20;;;21.00;68.50;;;;;;4968682;28;20430;-78
2023/10/31 06:21:07;;;;;;;7.13;5.10;;;21.00;68.30;;;;;;4975326;28;20521;-78
2023/10/31 06:23:35;;;;;;;7.57;5.20;;;20.90;67.80;;;;;;4979695;28;20438;-78
2023/10/31 06:26:05;;;;;;;7.70;5.40;;;20.90;68.00;;;;;;4961439;28;20560;-78
2023/10/31 06:28:34;;;;;;;7.43;4.97;;;20.90;68.20;;;;;;4979766;28;20483;-78
2023/10/31 06:31:07;;;;;;;7.90;5.20;;;20.90;68.00;;;;;;4973060;28;20471;-79
2023/10/31 06:33:34;;;;;;;6.27;4.90;;;20.90;68.00;;;;;;4974092;28;20435;-79
2023/10/31 06:36:03;;;;;;;8.90;5.80;;;20.90;67.90;;;;;;4976669;28;20548;-79
2023/10/31 06:38:31;;;;;;;6.70;4.97;;;20.90;67.90;;;;;;4979901;28;20470;-79
2023/10/31 06:40:59;;;;;;;8.93;5.10;;;20.80;68.00;;;;;;4976295;28;20472;-78
2023/10/31 06:43:28;;;;;;;7.17;5.20;;;20.90;67.80;;;;;;4967602;28;20465;-79
2023/10/31 06:46:02;;;;;;;7.90;5.37;;;20.80;67.80;;;;;;4968997;28;20469;-79
2023/10/31 06:48:30;;;;;;;8.77;5.07;;;20.80;68.00;;;;;;4974478;28;20488;-79
2023/10/31 06:50:58;;;;;;;6.37;5.10;;;20.80;67.70;;;;;;4974955;28;20481;-78
2023/10/31 06:53:26;;;;;;;5.87;4.70;;;20.80;67.90;;;;;;4966173;28;20442;-79
2023/10/31 06:55:54;;;;;;;6.93;5.33;;;20.80;67.70;;;;;;4974670;28;20487;-78
2023/10/31 06:58:22;;;;;;;8.27;5.53;;;20.80;67.80;;;;;;4970124;28;20542;-78
2023/10/31 07:00:52;;;;;;;6.47;5.03;;;20.70;67.70;;;;;;4976435;28;20438;-78
2023/10/31 07:03:20;;;;;;;6.53;4.70;;;20.70;67.50;;;;;;4974767;28;20537;-79
2023/10/31 07:05:48;;;;;;;8.37;5.77;;;20.70;67.90;;;;;;4970368;28;20501;-79
2023/10/31 07:08:16;;;;;;;7.73;5.20;;;20.70;67.50;;;;;;4974500;28;20539;-79
2023/10/31 07:10:44;;;;;;;6.10;4.80;;;20.70;67.60;;;;;;4974990;28;20436;-78
2023/10/31 07:13:13;;;;;;;7.60;5.57;;;20.70;67.60;;;;;;4976142;28;20465;-79
2023/10/31 07:15:41;;;;;;;6.80;5.23;;;20.70;68.00;;;;;;4975974;28;20535;-79
2023/10/31 07:18:10;;;;;;;7.17;5.47;;;20.70;67.70;;;;;;4972415;28;20549;-79
2023/10/31 07:20:39;;;;;;;8.40;5.63;;;20.70;67.60;;;;;;4971692;28;20489;-78
2023/10/31 07:23:06;;;;;;;8.17;5.50;;;20.70;68.00;;;;;;4972921;28;20549;-79
2023/10/31 07:28:46;;;;;;;7.83;5.43;;;20.70;67.60;;;;;;5020289;28;20470;-81
2023/10/31 07:31:15;;;;;;;6.77;5.17;;;20.60;67.60;;;;;;5027602;28;20479;-81
2023/10/31 07:34:05;;;;;;;7.63;5.20;;;20.60;67.60;;;;;;5006565;28;20457;-81
2023/10/31 07:36:52;;;;;;;7.20;5.23;;;20.70;67.90;;;;;;4988273;28;20470;-81
2023/10/31 07:39:44;;;;;;;6.37;5.13;;;20.60;67.50;;;;;;4973917;28;20477;-84
2023/10/31 07:42:36;;;;;;;6.80;5.30;;;20.70;68.20;;;;;;4968263;28;20461;-84
2023/10/31 07:45:39;;;;;;;6.40;4.87;;;20.60;68.00;;;;;;4980653;28;20532;-81
2023/10/31 07:48:09;;;;;;;9.40;5.60;;;20.70;67.90;;;;;;4997494;28;20476;-81
2023/10/31 07:50:46;;;;;;;7.30;5.13;;;20.60;67.60;;;;;;5005149;28;20513;-82
2023/10/31 07:53:15;;;;;;;8.17;6.13;;;20.70;68.00;;;;;;4989401;28;20521;-83
2023/10/31 07:55:47;;;;;;;9.27;6.17;;;20.70;67.90;;;;;;4986510;28;20464;-83
2023/10/31 07:58:21;;;;;;;6.67;5.23;;;20.70;67.90;;;;;;4995851;28;20445;-80
2023/10/31 08:00:55;;;;;;;7.47;5.40;;;20.70;67.80;;;;;;4988989;28;20452;-80
2023/10/31 08:03:26;;;;;;;6.67;4.83;;;20.70;67.80;;;;;;4992025;28;20446;-81
2023/10/31 08:05:55;;;;;;;7.90;5.70;;;20.80;67.70;;;;;;4984694;28;20428;-81
2023/10/31 08:08:23;;;;;;;8.63;5.47;;;20.70;67.60;;;;;;4992611;28;20464;-83
2023/10/31 08:10:53;;;;;;;10.70;6.60;;;20.70;67.90;;;;;;4990657;28;20459;-78
2023/10/31 08:13:25;;;;;;;7.87;6.50;;;20.80;68.30;;;;;;4983962;28;20444;-77
2023/10/31 08:15:53;;;;;;;9.03;6.17;;;20.80;67.80;;;;;;4988068;28;20976;-81
2023/10/31 08:18:24;;;;;;;10.10;6.10;;;20.80;67.70;;;;;;4994844;28;20500;-78
2023/10/31 08:20:57;;;;;;;6.17;4.97;;;20.80;67.80;;;;;;4994660;28;20488;-80
2023/10/31 08:23:27;;;;;;;7.40;5.07;;;20.80;68.00;;;;;;4981460;28;20472;-79
2023/10/31 08:26:26;;;;;;;;;;;;;;;;;;;;;
2023/10/31 08:29:14;;;;;;;6.60;5.70;;;20.80;67.90;;;;;;4982044;28;20444;-78
2023/10/31 08:31:47;;;;;;;7.50;5.57;;;20.70;68.00;;;;;;4985821;28;20445;-80
2023/10/31 08:34:23;;;;;;;8.27;5.90;;;20.70;67.90;;;;;;4980381;28;20452;-80
2023/10/31 08:36:52;;;;;;;8.10;5.63;;;20.70;68.10;;;;;;4997719;28;20545;-79
2023/10/31 08:39:30;;;;;;;6.53;5.17;;;20.70;68.00;;;;;;4983431;28;20449;-80
2023/10/31 08:42:05;;;;;;;7.40;5.30;;;20.70;68.30;;;;;;4986915;28;20481;-79
2023/10/31 08:44:36;;;;;;;6.53;5.30;;;20.70;68.00;;;;;;4994763;28;20448;-80
2023/10/31 08:47:06;;;;;;;5.70;4.63;;;20.70;68.00;;;;;;4991796;28;20457;-79
2023/10/31 08:49:35;;;;;;;7.30;5.50;;;20.80;68.50;;;;;;4997705;28;20452;-78
2023/10/31 08:52:11;;;;;;;7.10;5.30;;;20.70;68.10;;;;;;4987540;28;20458;-79
2023/10/31 08:54:53;;;;;;;7.30;5.70;;;20.80;68.00;;;;;;4985213;28;20456;-81
2023/10/31 08:57:36;;;;;;;5.43;4.60;;;20.80;68.30;;;;;;4986573;28;20545;-81
2023/10/31 09:00:17;;;;;;;5.60;4.87;;;20.80;68.10;;;;;;4989211;28;20488;-78
2023/10/31 09:02:45;;;;;;;6.10;4.60;;;20.80;67.90;;;;;;4987460;28;20537;-79
2023/10/31 09:05:17;;;;;;;7.23;5.10;;;20.90;68.00;;;;;;4989620;28;20473;-80
2023/10/31 09:07:54;;;;;;;5.50;4.93;;;20.80;68.00;;;;;;4995940;28;20441;-80
2023/10/31 09:10:33;;;;;;;5.97;4.70;;;20.90;68.00;;;;;;4986893;28;20483;-82
2023/10/31 09:13:15;;;;;;;5.77;4.50;;;20.90;67.90;;;;;;4983716;28;20427;-80
2023/10/31 09:15:46;;;;;;;7.73;4.90;;;20.90;67.80;;;;;;4995796;28;20464;-79
2023/10/31 09:18:19;;;;;;;5.43;4.30;;;20.80;68.10;;;;;;4985121;28;20457;-79
2023/10/31 09:20:57;;;;;;;5.40;4.00;;;20.90;68.00;;;;;;4978986;28;20445;-82
2023/10/31 09:23:29;;;;;;;5.10;4.13;;;20.90;68.10;;;;;;4990974;28;20956;-83
2023/10/31 09:26:02;;;;;;;5.43;4.50;;;20.90;68.00;;;;;;4988825;28;20483;-84
2023/10/31 09:28:56;;;;;;;5.47;4.67;;;20.80;68.20;;;;;;4990347;28;20446;-82
2023/10/31 09:31:38;;;;;;;4.20;3.80;;;20.90;68.30;;;;;;4932030;28;20426;-82
2023/10/31 09:34:10;;;;;;;3.50;3.20;;;20.90;68.30;;;;;;4991474;28;20511;-81
2023/10/31 09:36:47;;;;;;;5.33;4.37;;;20.90;68.20;;;;;;4979074;28;20529;-81
2023/10/31 09:39:30;;;;;;;4.27;3.87;;;20.90;68.30;;;;;;4985917;28;20446;-79
2023/10/31 09:42:09;;;;;;;4.20;3.70;;;20.90;68.30;;;;;;4996085;28;20479;-80
2023/10/31 09:44:41;;;;;;;5.70;4.03;;;20.90;68.10;;;;;;4981531;28;20449;-81
2023/10/31 09:50:17;;;;;;;4.57;4.17;;;21.00;68.00;;;;;;4980715;28;20495;-80
2023/10/31 09:56:26;;;;;;;5.10;3.80;;;21.10;67.60;;;;;;4984864;28;20473;-82
2023/10/31 10:02:49;;;;;;;6.13;4.33;;;21.10;67.90;;;;;;4981000;28;20425;-80
2023/10/31 10:05:25;;;;;;;3.40;3.10;;;21.00;67.70;;;;;;5001521;28;20476;-80
2023/10/31 10:08:00;;;;;;;4.40;3.67;;;21.00;67.80;;;;;;4980996;28;20512;-80
2023/10/31 10:10:38;;;;;;;3.60;3.30;;;21.00;68.20;;;;;;4990588;28;20465;-81
2023/10/31 10:16:44;;;;;;;3.90;3.50;;;21.10;68.40;;;;;;5003666;28;20578;-80
2023/10/31 10:19:17;;;;;;;3.70;3.40;;;21.10;68.50;;;;;;4986066;28;20448;-80
2023/10/31 10:22:00;;;;;;;8.37;3.70;;;21.10;68.40;;;;;;4989162;28;20460;-80
2023/10/31 10:24:42;;;;;;;4.17;3.33;;;21.10;68.20;;;;;;4989074;28;20450;-81
2023/10/31 10:27:28;;;;;;;4.43;3.40;;;21.10;68.60;;;;;;4985051;28;20464;-81
2023/10/31 10:30:07;;;;;;;3.60;3.27;;;21.10;68.50;;;;;;4990994;28;20473;-80
2023/10/31 10:35:31;;;;;;;4.70;3.50;;;21.10;68.40;;;;;;5001544;28;20466;-81
2023/10/31 10:38:19;;;;;;;5.60;3.40;;;21.10;68.50;;;;;;4983308;28;20496;-81
2023/10/31 10:40:58;;;;;;;4.53;3.63;;;21.10;68.50;;;;;;4986031;28;20442;-79
2023/10/31 10:43:44;;;;;;;4.77;3.83;;;21.20;68.50;;;;;;4982532;28;20445;-79
2023/10/31 10:46:25;;;;;;;7.53;4.80;;;21.20;68.70;;;;;;4993830;28;20458;-82
2023/10/31 10:49:11;;;;;;;9.60;4.97;;;21.20;68.60;;;;;;4992134;28;20980;-79
2023/10/31 10:52:18;;;;;;;5.67;4.00;;;21.20;68.60;;;;;;4987848;28;20516;-81
2023/10/31 10:55:09;;;;;;;9.13;5.20;;;21.20;68.90;;;;;;4991732;28;20561;-80
2023/10/31 11:00:58;;;;;;;6.63;4.80;;;21.30;68.50;;;;;;4979885;28;20451;-82
2023/10/31 11:04:33;;;;;;;7.90;5.10;;;21.40;68.60;;;;;;4988989;28;20487;-79
2023/10/31 11:07:15;;;;;;;10.20;5.57;;;21.50;68.70;;;;;;4902728;29;20448;-78
2023/10/31 11:13:36;;;;;;;10.90;5.97;;;21.60;68.80;;;;;;4696749;30;20448;-82
2023/10/31 11:16:10;;;;;;;9.50;5.73;;;21.60;68.50;;;;;;4850109;29;20467;-81
2023/10/31 11:18:38;;;;;;;9.43;5.50;;;21.60;68.50;;;;;;4968012;28;20485;-81
2023/10/31 11:21:08;;;;;;;10.00;5.43;;;21.60;68.80;;;;;;4990251;28;20474;-82
2023/10/31 11:23:37;;;;;;;10.77;5.40;;;21.80;68.70;;;;;;5001964;28;20456;-83
2023/10/31 11:26:05;;;;;;;11.50;6.30;;;21.80;68.20;;;;;;5009010;28;20462;-85
2023/10/31 11:28:33;;;;;;;8.20;5.37;;;22.00;68.70;;;;;;5000978;28;20480;-82
2023/10/31 11:31:02;;;;;;;9.87;5.17;;;22.00;67.80;;;;;;4994940;28;20487;-83
2023/10/31 11:33:33;;;;;;;9.47;5.53;;;22.00;67.90;;;;;;4998047;28;20448;-82
2023/10/31 11:36:01;;;;;;;9.70;5.40;;;22.00;67.80;;;;;;5008661;28;20439;-84
2023/10/31 11:38:35;;;;;;;12.00;6.13;;;21.90;67.70;;;;;;5000492;28;20456;-83
2023/10/31 11:41:04;;;;;;;8.80;5.53;;;21.90;67.80;;;;;;5003157;28;20429;-85
2023/10/31 11:43:54;;;;;;;12.00;6.10;;;21.90;68.00;;;;;;4995791;28;20442;-82
2023/10/31 11:46:24;;;;;;;10.13;5.43;;;21.80;68.50;;;;;;4993416;28;20457;-83
2023/10/31 11:48:54;;;;;;;15.33;6.30;;;21.80;68.70;;;;;;4994223;28;20459;-81
2023/10/31 11:51:22;;;;;;;14.33;7.30;;;21.80;68.80;;;;;;5001668;28;20492;-81
2023/10/31 11:53:52;;;;;;;13.37;6.33;;;21.80;69.00;;;;;;4989730;28;20539;-82
2023/10/31 11:56:20;;;;;;;12.20;6.30;;;21.80;69.40;;;;;;4996524;28;20484;-82
2023/10/31 11:59:02;;;;;;;9.80;5.80;;;21.90;69.20;;;;;;5000015;28;20412;-81
2023/10/31 12:01:30;;;;;;;14.63;6.10;;;21.90;69.50;;;;;;4996537;28;20441;-82
2023/10/31 12:04:00;;;;;;;12.27;6.57;;;21.90;69.70;;;;;;4991594;28;20455;-85
2023/10/31 12:06:32;;;;;;;12.53;6.37;;;22.00;69.90;;;;;;5002175;28;20444;-81
2023/10/31 12:09:04;;;;;;;13.40;7.13;;;22.10;69.50;;;;;;5002539;28;20820;-80
2023/10/31 12:11:32;;;;;;;13.30;6.53;;;22.20;69.60;;;;;;4996800;28;20477;-78
2023/10/31 12:14:05;;;;;;;13.50;7.10;;;22.20;69.40;;;;;;4993318;28;20452;-78
2023/10/31 12:16:34;;;;;;;16.50;7.63;;;22.20;69.50;;;;;;4980928;28;20458;-80
2023/10/31 12:19:08;;;;;;;14.20;7.40;;;22.20;69.40;;;;;;4990568;28;20427;-78
2023/10/31 12:21:41;;;;;;;14.30;7.70;;;22.20;69.60;;;;;;4976722;28;20423;-77
2023/10/31 12:24:20;;;;;;;13.13;6.90;;;22.20;69.60;;;;;;4991096;28;20449;-82
2023/10/31 12:26:49;;;;;;;12.03;6.57;;;22.20;69.40;;;;;;4989107;28;20884;-79
2023/10/31 12:29:18;;;;;;;10.97;7.07;;;22.10;69.50;;;;;;4989421;28;20457;-82
2023/10/31 12:31:48;;;;;;;10.70;6.20;;;22.10;69.40;;;;;;4991914;28;20478;-80
2023/10/31 12:34:16;;;;;;;15.93;6.77;;;22.10;69.70;;;;;;5002947;28;20517;-81
2023/10/31 12:36:46;;;;;;;16.40;7.73;;;22.10;69.80;;;;;;4987742;28;20453;-78
2023/10/31 12:39:15;;;;;;;18.10;6.70;;;22.10;69.80;;;;;;4996060;28;20476;-81
2023/10/31 12:41:44;;;;;;;13.33;7.00;;;22.00;70.00;;;;;;4996192;28;20420;-79
2023/10/31 12:44:12;;;;;;;14.00;6.57;;;22.00;69.90;;;;;;5002288;28;20419;-82
2023/10/31 12:46:41;;;;;;;14.90;7.03;;;22.00;70.50;;;;;;5007153;28;20451;-81
2023/10/31 12:49:12;;;;;;;18.33;7.53;;;22.20;70.30;;;;;;5004868;28;20449;-80
2023/10/31 12:51:56;;;;;;;18.97;7.50;;;22.30;70.40;;;;;;4991123;28;20474;-80
2023/10/31 12:54:31;;;;;;;12.33;7.07;;;22.40;70.10;;;;;;5004306;28;20467;-79
2023/10/31 12:57:02;;;;;;;12.00;6.67;;;22.50;69.70;;;;;;4999824;28;20448;-80
2023/10/31 12:59:30;;;;;;;13.03;6.50;;;22.40;69.20;;;;;;5000280;28;20435;-78
2023/10/31 13:01:58;;;;;;;14.00;7.20;;;22.40;69.50;;;;;;5001844;28;20440;-80
2023/10/31 13:04:27;;;;;;;12.90;6.67;;;22.40;69.80;;;;;;5002256;28;20436;-79
2023/10/31 13:06:57;;;;;;;12.27;6.63;;;22.40;69.60;;;;;;4998894;28;20429;-82
2023/10/31 13:09:29;;;;;;;13.60;6.57;;;22.40;70.00;;;;;;4998945;28;20452;-82
2023/10/31 13:12:03;;;;;;;12.63;6.73;;;23.00;71.70;;;;;;4997745;28;20551;-78
2023/10/31 13:14:32;;;;;;;13.10;6.40;;;23.30;69.30;;;;;;4991643;28;20452;-80
2023/10/31 13:17:00;;;;;;;12.07;6.80;;;23.40;69.00;;;;;;4997524;28;20496;-79
2023/10/31 13:19:28;;;;;;;13.70;6.60;;;23.60;70.10;;;;;;5001818;28;20439;-79
2023/10/31 13:21:56;;;;;;;14.40;7.00;;;24.20;68.70;;;;;;4994941;28;20464;-80
2023/10/31 13:24:24;;;;;;;12.40;6.80;;;24.40;66.30;;;;;;4995774;28;20472;-79
2023/10/31 13:26:52;;;;;;;12.23;6.40;;;24.30;66.30;;;;;;5001725;28;20530;-80
2023/10/31 13:29:25;;;;;;;11.77;6.33;;;24.20;65.60;;;;;;5003546;28;20483;-84
2023/10/31 13:31:54;;;;;;;9.07;5.50;;;24.10;65.90;;;;;;5003150;28;20472;-83
2023/10/31 13:34:23;;;;;;;12.40;6.40;;;24.00;66.50;;;;;;5000457;28;20428;-81
2023/10/31 13:36:52;;;;;;;11.83;6.07;;;23.90;66.80;;;;;;5003345;28;20473;-82
2023/10/31 13:39:23;;;;;;;9.83;6.30;;;23.80;67.00;;;;;;5005663;28;20434;-82
2023/10/31 13:41:52;;;;;;;10.57;6.50;;;23.80;66.90;;;;;;5004545;28;20446;-80
2023/10/31 13:44:21;;;;;;;11.83;6.40;;;23.60;66.90;;;;;;4994387;28;20523;-78
2023/10/31 13:46:50;;;;;;;10.20;5.60;;;23.50;67.20;;;;;;4995717;28;20443;-79
2023/10/31 13:49:18;;;;;;;10.57;6.20;;;23.50;67.60;;;;;;4995943;28;20489;-80
2023/10/31 13:51:47;;;;;;;12.37;6.20;;;23.50;67.70;;;;;;4996223;28;20482;-82
2023/10/31 13:54:15;;;;;;;11.80;6.30;;;23.40;67.70;;;;;;4996629;28;20449;-79
2023/10/31 13:56:44;;;;;;;10.40;5.90;;;23.40;68.10;;;;;;4989232;28;20477;-79
2023/10/31 13:59:12;;;;;;;9.73;6.17;;;23.40;68.20;;;;;;4992991;28;20412;-78
2023/10/31 14:01:42;;;;;;;11.33;6.33;;;23.40;68.20;;;;;;4993572;28;20438;-78
2023/10/31 14:04:13;;;;;;;9.83;5.80;;;23.40;68.10;;;;;;4992280;28;20453;-81
2023/10/31 14:06:42;;;;;;;12.43;6.70;;;23.40;68.10;;;;;;4993536;28;20454;-79
2023/10/31 14:09:10;;;;;;;9.30;5.50;;;23.30;67.80;;;;;;4988864;28;20481;-80
2023/10/31 14:11:39;;;;;;;10.60;5.90;;;23.30;68.10;;;;;;4993908;28;20473;-79
2023/10/31 14:14:10;;;;;;;8.90;5.60;;;23.30;68.30;;;;;;4998993;28;20463;-80
2023/10/31 14:16:39;;;;;;;11.23;6.13;;;23.30;68.40;;;;;;4999304;28;20472;-79
2023/10/31 14:19:09;;;;;;;9.40;5.50;;;23.20;68.90;;;;;;4994062;28;20453;-81
2023/10/31 14:21:38;;;;;;;13.30;6.00;;;23.20;68.20;;;;;;4997603;28;20431;-80
2023/10/31 14:24:07;;;;;;;11.13;5.57;;;23.10;68.30;;;;;;5007476;28;20668;-82
2023/10/31 14:26:40;;;;;;;10.50;5.60;;;23.10;68.30;;;;;;4997928;28;20516;-82
2023/10/31 14:29:10;;;;;;;10.80;5.70;;;23.00;68.20;;;;;;5001842;28;20420;-82
2023/10/31 14:31:42;;;;;;;11.50;5.90;;;23.00;68.40;;;;;;4997887;28;20447;-81
2023/10/31 14:34:19;;;;;;;9.90;6.10;;;22.90;68.40;;;;;;5000098;28;20436;-81
2023/10/31 14:36:51;;;;;;;10.53;5.97;;;22.90;68.60;;;;;;5004308;28;20483;-81
2023/10/31 14:39:22;;;;;;;8.07;5.83;;;22.90;68.50;;;;;;4997324;28;20460;-82
2023/10/31 14:41:53;;;;;;;10.70;6.00;;;22.90;68.70;;;;;;5005720;28;20452;-84
2023/10/31 14:44:25;;;;;;;11.40;6.60;;;22.90;68.50;;;;;;4997766;28;20419;-82
2023/10/31 14:47:00;;;;;;;11.80;6.53;;;22.80;68.80;;;;;;4995246;28;20536;-81
2023/10/31 14:49:40;;;;;;;9.67;6.10;;;22.80;69.30;;;;;;5000724;28;20454;-80